Time;durP1;ratioP1;P1;durP2;ratioP2;P2;SDS_P1;SDS_P2;PMS_P1;PMS_P2;Temp;Humidity;BMP_temperature;BMP_pressure;BME280_temperature;BME280_humidity;BME280_pressure;Samples;Min_cycle;Max_cycle;Signal;HPM_P1;HPM_P2
2022/01/06 00:01:52;;;;;;;20.58;4.13;;;4.20;99.90;;;;;;5011482;28;20041;-87
2022/01/06 00:04:18;;;;;;;28.05;3.47;;;3.80;99.90;;;;;;4994688;28;20061;-87
2022/01/06 00:06:43;;;;;;;29.63;4.07;;;3.80;99.90;;;;;;4993806;28;20052;-87
2022/01/06 00:09:14;;;;;;;19.23;3.08;;;3.90;99.90;;;;;;4994891;28;20049;-87
2022/01/06 00:11:39;;;;;;;22.55;3.00;;;4.00;99.90;;;;;;5010734;28;20050;-86
2022/01/06 00:14:14;;;;;;;16.20;2.50;;;4.00;99.90;;;;;;4994534;28;20056;-86
2022/01/06 00:24:22;;;;;;;31.38;3.42;;;4.10;99.90;;;;;;4991075;28;20477;-86
2022/01/06 00:26:48;;;;;;;20.20;2.83;;;4.00;99.90;;;;;;4975530;28;20068;-86
2022/01/06 00:29:15;;;;;;;18.65;2.50;;;4.00;99.90;;;;;;4990318;28;20081;-86
2022/01/06 00:31:41;;;;;;;24.13;3.08;;;4.00;99.90;;;;;;4990916;28;20476;-87
2022/01/06 00:34:10;;;;;;;28.17;3.45;;;3.90;99.90;;;;;;4990812;28;20042;-86
2022/01/06 00:36:37;;;;;;;18.15;2.90;;;3.90;99.90;;;;;;4974285;28;20498;-87
2022/01/06 00:39:03;;;;;;;20.42;3.45;;;4.10;99.90;;;;;;4990661;28;20067;-86
2022/01/06 00:41:31;;;;;;;26.08;3.25;;;3.80;99.90;;;;;;4973514;28;20054;-87
2022/01/06 00:43:57;;;;;;;26.00;3.22;;;3.70;99.90;;;;;;4975102;28;20033;-87
2022/01/06 00:46:22;;;;;;;23.92;3.55;;;3.70;99.90;;;;;;4990378;28;20516;-86
2022/01/06 00:48:48;;;;;;;20.27;3.05;;;3.60;99.90;;;;;;4973772;28;20046;-87
2022/01/06 00:51:14;;;;;;;21.60;3.05;;;3.60;99.90;;;;;;4975005;28;20053;-86
2022/01/06 00:53:42;;;;;;;28.00;3.47;;;3.90;99.90;;;;;;4974577;28;20391;-87
2022/01/06 00:56:07;;;;;;;17.30;2.75;;;4.10;99.90;;;;;;4974484;28;20148;-86
2022/01/06 00:58:34;;;;;;;21.90;3.35;;;4.20;99.90;;;;;;4990731;28;20496;-86
2022/01/06 01:00:59;;;;;;;19.63;2.80;;;3.70;99.90;;;;;;4990484;28;20057;-87
2022/01/06 01:03:27;;;;;;;23.88;2.63;;;3.60;99.90;;;;;;4989941;28;20386;-87
2022/01/06 01:05:55;;;;;;;25.15;2.50;;;3.60;99.90;;;;;;4973853;28;20049;-87
2022/01/06 01:08:22;;;;;;;22.38;2.10;;;4.00;99.90;;;;;;4974302;28;20041;-87
2022/01/06 01:10:50;;;;;;;20.10;2.33;;;4.00;99.90;;;;;;4989623;28;20133;-86
2022/01/06 01:13:26;;;;;;;18.05;2.72;;;3.60;99.90;;;;;;4973879;28;20149;-86
2022/01/06 01:15:54;;;;;;;17.90;1.80;;;3.50;99.90;;;;;;4974091;28;20046;-86
2022/01/06 01:18:21;;;;;;;18.20;2.20;;;3.50;99.90;;;;;;4989696;28;20053;-86
2022/01/06 01:20:48;;;;;;;18.80;2.35;;;3.50;99.90;;;;;;4973930;28;20056;-86
2022/01/06 01:23:15;;;;;;;17.88;2.45;;;3.50;99.90;;;;;;4990583;28;20433;-86
2022/01/06 01:25:40;;;;;;;22.60;2.67;;;3.50;99.90;;;;;;4973210;28;20053;-86
2022/01/06 01:28:06;;;;;;;16.65;2.53;;;3.50;99.90;;;;;;4974198;28;20041;-87
2022/01/06 01:30:40;;;;;;;17.00;2.03;;;4.10;99.90;;;;;;4972971;28;20053;-86
2022/01/06 01:33:14;;;;;;;20.35;2.40;;;3.50;99.90;;;;;;4974116;28;20045;-87
2022/01/06 01:35:41;;;;;;;13.25;2.15;;;4.30;99.90;;;;;;4973866;28;20049;-87
2022/01/06 01:38:07;;;;;;;12.90;1.77;;;3.50;99.90;;;;;;4989682;28;20041;-87
2022/01/06 01:40:33;;;;;;;18.60;2.17;;;3.50;99.90;;;;;;4990206;28;20068;-87
2022/01/06 01:42:59;;;;;;;12.63;2.20;;;3.90;99.90;;;;;;4973767;28;20041;-86
2022/01/06 01:45:29;;;;;;;14.10;1.85;;;3.40;99.90;;;;;;4972631;28;20050;-87
2022/01/06 01:47:57;;;;;;;16.02;1.63;;;3.40;99.90;;;;;;4989798;28;20050;-87
2022/01/06 01:50:23;;;;;;;12.90;2.38;;;3.30;99.90;;;;;;4973562;28;20048;-87
2022/01/06 01:52:53;;;;;;;22.23;2.13;;;3.30;99.90;;;;;;4975199;28;20073;-86
2022/01/06 01:55:24;;;;;;;16.40;1.80;;;3.10;99.90;;;;;;4978121;28;20056;-86
2022/01/06 01:57:50;;;;;;;12.35;2.08;;;3.10;99.90;;;;;;4993633;28;20508;-85
2022/01/06 02:00:17;;;;;;;12.02;1.45;;;3.00;99.90;;;;;;4993202;28;20453;-86
2022/01/06 02:02:44;;;;;;;17.45;1.90;;;2.90;99.90;;;;;;4994230;28;20038;-87
2022/01/06 02:05:10;;;;;;;26.60;2.70;;;2.90;99.90;;;;;;4977615;28;20177;-85
2022/01/06 02:07:39;;;;;;;17.60;1.77;;;2.90;99.90;;;;;;4999328;28;20064;-87
2022/01/06 02:10:07;;;;;;;18.05;1.70;;;2.80;99.90;;;;;;5016849;28;20059;-87
2022/01/06 02:12:36;;;;;;;12.82;1.75;;;2.70;99.90;;;;;;5017007;28;20108;-86
2022/01/06 02:15:04;;;;;;;20.40;1.80;;;2.70;99.90;;;;;;5032413;28;20132;-86
2022/01/06 02:17:30;;;;;;;18.33;2.45;;;2.60;99.90;;;;;;5016833;28;20049;-87
2022/01/06 02:19:57;;;;;;;13.48;1.77;;;3.40;99.90;;;;;;5007487;28;20041;-86
2022/01/06 02:22:23;;;;;;;14.48;2.42;;;2.50;99.90;;;;;;4977764;28;20042;-86
2022/01/06 02:24:49;;;;;;;11.15;1.58;;;2.60;99.90;;;;;;4977608;28;20046;-86
2022/01/06 02:27:15;;;;;;;13.48;2.08;;;2.60;99.90;;;;;;4976912;28;20049;-87
2022/01/06 02:29:42;;;;;;;14.77;2.00;;;2.60;99.90;;;;;;4977745;28;20053;-87
2022/01/06 02:32:10;;;;;;;13.93;1.85;;;2.70;99.90;;;;;;4977206;28;20148;-86
2022/01/06 02:34:36;;;;;;;12.93;2.45;;;2.70;99.90;;;;;;4976072;28;20037;-86
2022/01/06 02:37:03;;;;;;;16.77;2.25;;;2.70;99.90;;;;;;4976957;28;20347;-86
2022/01/06 02:39:29;;;;;;;18.92;2.72;;;2.80;99.90;;;;;;4977396;28;20264;-86
2022/01/06 02:41:55;;;;;;;15.80;2.08;;;2.90;99.90;;;;;;4976829;28;20049;-86
2022/01/06 02:44:24;;;;;;;15.38;2.35;;;3.00;99.90;;;;;;4993201;28;20346;-86
2022/01/06 02:46:50;;;;;;;10.85;2.50;;;3.10;99.90;;;;;;4976647;28;20053;-86
2022/01/06 02:49:15;;;;;;;17.05;2.35;;;3.20;99.90;;;;;;4975349;28;20424;-87
2022/01/06 02:51:42;;;;;;;20.33;2.55;;;3.20;99.90;;;;;;4993346;28;20230;-86
2022/01/06 02:54:07;;;;;;;16.48;2.58;;;3.20;99.90;;;;;;4976808;28;20084;-87
2022/01/06 02:56:33;;;;;;;16.10;2.72;;;3.80;99.90;;;;;;4976057;28;20081;-86
2022/01/06 02:58:59;;;;;;;21.98;2.60;;;3.20;99.90;;;;;;4976746;28;20057;-86
2022/01/06 03:01:25;;;;;;;15.20;2.55;;;3.20;99.90;;;;;;4976318;28;20116;-86
2022/01/06 03:03:50;;;;;;;18.00;2.63;;;3.10;99.90;;;;;;4990846;28;20037;-87
2022/01/06 03:06:16;;;;;;;13.45;2.80;;;3.20;99.90;;;;;;4976711;28;20053;-86
2022/01/06 03:08:42;;;;;;;19.05;3.50;;;3.20;99.90;;;;;;4977117;28;20041;-87
2022/01/06 03:11:08;;;;;;;22.42;3.33;;;3.20;99.90;;;;;;4976213;28;20414;-87
2022/01/06 03:13:34;;;;;;;24.50;2.75;;;3.20;99.90;;;;;;4976595;28;20077;-86
2022/01/06 03:16:01;;;;;;;17.25;2.55;;;3.30;99.90;;;;;;4976047;28;20302;-87
2022/01/06 03:18:27;;;;;;;38.13;3.75;;;3.30;99.90;;;;;;4976710;28;20038;-87
2022/01/06 03:20:53;;;;;;;23.75;3.72;;;3.50;99.90;;;;;;4976542;28;20049;-86
2022/01/06 03:23:18;;;;;;;21.35;2.92;;;3.20;99.90;;;;;;4976293;28;20041;-87
2022/01/06 03:25:44;;;;;;;17.85;2.78;;;3.60;99.90;;;;;;4976299;28;20088;-87
2022/01/06 03:28:10;;;;;;;16.42;2.60;;;3.10;99.90;;;;;;4993393;28;20089;-87
2022/01/06 03:30:36;;;;;;;33.78;3.45;;;3.10;99.90;;;;;;4991178;28;20572;-87
2022/01/06 03:33:01;;;;;;;25.95;3.58;;;3.00;99.90;;;;;;4976518;28;20049;-87
2022/01/06 03:35:27;;;;;;;18.08;3.10;;;3.00;99.90;;;;;;4992153;28;20088;-87
2022/01/06 03:37:53;;;;;;;21.70;3.08;;;2.90;99.90;;;;;;4975505;28;20044;-87
2022/01/06 03:40:19;;;;;;;22.10;3.33;;;2.90;99.90;;;;;;4975908;28;20072;-87
2022/01/06 03:42:45;;;;;;;27.90;3.30;;;2.70;99.90;;;;;;4991856;28;20128;-87
2022/01/06 03:45:16;;;;;;;24.48;3.10;;;2.60;99.90;;;;;;4975098;28;20053;-87
2022/01/06 03:47:42;;;;;;;29.60;3.60;;;2.50;99.90;;;;;;4991407;28;20446;-87
2022/01/06 03:50:10;;;;;;;22.90;3.03;;;2.40;99.90;;;;;;4976137;28;20060;-86
2022/01/06 03:52:36;;;;;;;20.55;2.65;;;3.00;99.90;;;;;;4975447;28;20393;-87
2022/01/06 03:55:04;;;;;;;19.35;3.13;;;2.20;99.90;;;;;;4975971;28;20045;-86
2022/01/06 03:57:30;;;;;;;25.05;3.22;;;2.10;99.90;;;;;;4991968;28;20497;-86
2022/01/06 03:59:56;;;;;;;29.13;3.38;;;2.00;99.90;;;;;;4974960;28;20046;-86
2022/01/06 04:02:22;;;;;;;25.27;3.10;;;2.40;99.90;;;;;;4975184;28;20052;-87
2022/01/06 04:04:47;;;;;;;23.40;2.75;;;2.60;99.90;;;;;;4991027;28;20072;-88
2022/01/06 04:07:13;;;;;;;27.95;3.13;;;3.90;99.90;;;;;;4975233;28;20064;-87
2022/01/06 04:09:39;;;;;;;19.73;2.80;;;1.80;99.90;;;;;;4975326;28;20045;-86
2022/01/06 04:12:09;;;;;;;24.58;3.25;;;1.70;99.90;;;;;;4975691;28;20050;-87
2022/01/06 04:14:34;;;;;;;30.05;3.60;;;1.50;99.90;;;;;;4991230;28;20042;-87
2022/01/06 04:17:01;;;;;;;26.70;3.03;;;1.50;99.90;;;;;;4991035;28;20549;-87
2022/01/06 04:19:27;;;;;;;32.83;3.97;;;1.50;99.90;;;;;;4974260;28;20045;-87
2022/01/06 04:21:53;;;;;;;19.58;2.72;;;2.00;99.90;;;;;;4975088;28;20042;-87
2022/01/06 04:24:19;;;;;;;27.48;3.53;;;1.80;99.90;;;;;;4991311;28;20053;-87
2022/01/06 04:26:45;;;;;;;21.10;3.42;;;2.00;99.90;;;;;;4974937;28;20046;-86
2022/01/06 04:29:11;;;;;;;31.98;3.42;;;1.40;99.90;;;;;;4991353;28;20046;-87
2022/01/06 04:31:38;;;;;;;20.63;3.78;;;2.00;99.90;;;;;;4974650;28;20107;-87
2022/01/06 04:34:03;;;;;;;30.10;3.65;;;1.30;99.90;;;;;;4973848;28;20136;-87
2022/01/06 04:36:29;;;;;;;31.92;3.65;;;1.90;99.90;;;;;;4975409;28;20128;-87
2022/01/06 04:38:55;;;;;;;30.58;4.18;;;1.20;99.90;;;;;;4975318;28;20108;-87
2022/01/06 04:41:20;;;;;;;23.45;3.25;;;2.70;99.90;;;;;;4974553;28;20085;-88
2022/01/06 04:43:46;;;;;;;27.27;4.15;;;1.30;99.90;;;;;;4975178;28;20075;-87
2022/01/06 04:46:12;;;;;;;29.77;3.60;;;0.70;99.90;;;;;;4974840;28;20053;-87
2022/01/06 04:48:37;;;;;;;24.30;3.38;;;1.20;99.90;;;;;;4974076;28;20038;-87
2022/01/06 04:51:04;;;;;;;29.15;3.47;;;1.10;99.90;;;;;;4994493;28;20049;-87
2022/01/06 04:53:30;;;;;;;21.05;2.72;;;1.10;99.90;;;;;;4993971;28;20080;-87
2022/01/06 04:55:58;;;;;;;24.85;4.53;;;1.20;99.90;;;;;;4993485;28;20096;-87
2022/01/06 04:58:23;;;;;;;29.35;2.78;;;1.50;99.90;;;;;;4994071;28;20038;-87
2022/01/06 05:00:49;;;;;;;24.85;3.20;;;1.50;99.90;;;;;;4994257;28;20119;-87
2022/01/06 05:03:15;;;;;;;25.80;3.42;;;1.80;99.90;;;;;;4993506;28;20515;-87
2022/01/06 05:05:40;;;;;;;28.58;4.10;;;1.20;99.90;;;;;;5012980;28;20080;-87
2022/01/06 05:08:06;;;;;;;26.38;3.70;;;1.10;99.90;;;;;;5014107;28;20049;-87
2022/01/06 05:10:32;;;;;;;25.20;3.28;;;2.40;99.90;;;;;;5012254;28;20060;-87
2022/01/06 05:12:58;;;;;;;31.95;3.33;;;1.10;99.90;;;;;;5013588;28;20051;-87
2022/01/06 05:15:23;;;;;;;36.47;3.33;;;1.90;99.90;;;;;;5013223;28;20391;-87
2022/01/06 05:17:49;;;;;;;30.05;3.78;;;1.00;99.90;;;;;;5029006;28;20515;-87
2022/01/06 05:20:15;;;;;;;24.38;3.15;;;1.20;99.90;;;;;;5003146;28;20053;-85
2022/01/06 05:22:45;;;;;;;33.58;3.95;;;0.80;99.90;;;;;;4988693;28;20041;-87
2022/01/06 05:25:12;;;;;;;30.10;3.78;;;1.80;99.90;;;;;;4994075;28;20045;-87
2022/01/06 05:27:38;;;;;;;26.15;2.70;;;1.60;99.90;;;;;;4992231;28;20034;-87
2022/01/06 05:30:05;;;;;;;24.55;3.28;;;1.20;99.90;;;;;;4993999;28;20577;-88
2022/01/06 05:32:31;;;;;;;29.98;3.75;;;1.20;99.90;;;;;;4996486;28;20045;-87
2022/01/06 05:34:57;;;;;;;25.45;2.85;;;1.10;99.90;;;;;;4991448;28;20064;-87
2022/01/06 05:37:22;;;;;;;30.05;2.80;;;1.10;99.90;;;;;;4992517;28;20570;-87
2022/01/06 05:39:48;;;;;;;27.42;4.50;;;1.10;99.90;;;;;;4993711;28;20088;-87
2022/01/06 05:42:14;;;;;;;28.40;3.55;;;1.10;99.90;;;;;;4994029;28;20041;-87
2022/01/06 05:44:42;;;;;;;27.27;3.60;;;1.10;99.90;;;;;;5009198;28;20045;-88
2022/01/06 05:47:08;;;;;;;32.95;3.67;;;1.10;99.90;;;;;;4993151;28;20053;-87
2022/01/06 05:49:34;;;;;;;32.72;3.80;;;1.10;99.90;;;;;;4993190;28;20038;-86
2022/01/06 05:52:00;;;;;;;36.00;3.45;;;1.10;99.90;;;;;;4992480;28;20041;-87
2022/01/06 05:54:26;;;;;;;24.65;2.97;;;1.40;99.90;;;;;;4993795;28;20077;-87
2022/01/06 05:56:52;;;;;;;27.33;4.18;;;2.00;99.90;;;;;;4993387;28;20187;-86
2022/01/06 05:59:18;;;;;;;32.05;4.40;;;1.10;99.90;;;;;;4992908;28;20068;-86
2022/01/06 06:01:46;;;;;;;28.05;3.65;;;1.90;99.90;;;;;;5009463;28;20527;-85
2022/01/06 06:04:12;;;;;;;27.15;4.00;;;1.20;99.90;;;;;;4992998;28;20037;-86
2022/01/06 06:06:37;;;;;;;29.55;3.65;;;1.50;99.90;;;;;;4992718;28;20049;-86
2022/01/06 06:09:03;;;;;;;35.10;4.07;;;0.90;99.90;;;;;;4990401;28;20055;-86
2022/01/06 06:11:29;;;;;;;35.22;3.85;;;1.00;99.90;;;;;;4973852;28;20060;-86
2022/01/06 06:13:54;;;;;;;31.10;2.97;;;1.90;99.90;;;;;;4973196;28;20052;-85
2022/01/06 06:16:20;;;;;;;37.50;4.35;;;1.10;99.90;;;;;;4989383;28;20088;-85
2022/01/06 06:18:46;;;;;;;31.00;5.22;;;0.80;99.90;;;;;;4989727;28;20046;-85
2022/01/06 06:21:11;;;;;;;39.35;4.07;;;0.70;99.90;;;;;;4973777;28;20129;-85
2022/01/06 06:23:37;;;;;;;29.45;3.80;;;0.70;99.90;;;;;;4974178;28;20057;-85
2022/01/06 06:26:03;;;;;;;33.72;4.40;;;1.40;99.90;;;;;;4973422;28;20496;-86
2022/01/06 06:28:28;;;;;;;22.92;4.05;;;0.60;99.90;;;;;;4990130;28;20053;-86
2022/01/06 06:30:54;;;;;;;28.83;4.13;;;0.50;99.90;;;;;;4973523;28;20077;-87
2022/01/06 06:33:20;;;;;;;23.77;3.92;;;0.50;99.90;;;;;;4989463;28;20048;-86
2022/01/06 06:35:45;;;;;;;26.20;2.90;;;0.40;99.90;;;;;;4972924;28;20097;-86
2022/01/06 06:38:11;;;;;;;31.67;3.78;;;0.30;99.90;;;;;;4974539;28;20064;-86
2022/01/06 06:40:37;;;;;;;29.73;4.03;;;0.20;99.90;;;;;;4992224;28;20386;-86
2022/01/06 06:43:02;;;;;;;35.30;4.35;;;0.20;99.90;;;;;;4977599;28;20057;-86
2022/01/06 06:45:28;;;;;;;40.78;4.80;;;0.20;99.90;;;;;;4976436;28;20120;-87
2022/01/06 06:47:54;;;;;;;23.48;3.35;;;0.20;99.90;;;;;;4992233;28;20089;-86
2022/01/06 06:50:21;;;;;;;21.77;3.50;;;0.20;99.90;;;;;;4976726;28;20082;-85
2022/01/06 06:52:47;;;;;;;37.33;3.78;;;0.20;99.90;;;;;;4976454;28;20166;-86
2022/01/06 06:55:13;;;;;;;37.78;4.35;;;0.90;99.90;;;;;;4992542;28;20093;-86
2022/01/06 06:57:40;;;;;;;32.72;3.60;;;0.10;99.90;;;;;;4976789;28;20049;-86
2022/01/06 07:00:07;;;;;;;26.00;4.45;;;0.10;99.90;;;;;;4976820;28;20041;-86
2022/01/06 07:02:33;;;;;;;48.90;4.25;;;0.10;99.90;;;;;;4991642;28;20434;-86
2022/01/06 07:04:59;;;;;;;28.05;4.63;;;0.10;99.90;;;;;;4975744;28;20050;-87
2022/01/06 07:07:25;;;;;;;28.58;4.15;;;0.10;99.90;;;;;;4992949;28;20050;-87
2022/01/06 07:09:51;;;;;;;29.90;3.80;;;0.10;99.90;;;;;;4991619;28;20355;-86
2022/01/06 07:12:17;;;;;;;23.05;4.18;;;0.10;99.90;;;;;;4992637;28;20053;-85
2022/01/06 07:14:42;;;;;;;26.80;3.58;;;0.10;99.90;;;;;;4992789;28;20073;-86
2022/01/06 07:17:08;;;;;;;21.55;3.70;;;0.10;99.90;;;;;;4975248;28;20119;-86
2022/01/06 07:19:34;;;;;;;28.65;4.22;;;0.10;99.90;;;;;;4992137;28;20414;-85
2022/01/06 07:22:00;;;;;;;19.05;3.22;;;0.10;99.90;;;;;;4975719;28;20053;-85
2022/01/06 07:24:26;;;;;;;24.17;3.53;;;0.10;99.90;;;;;;4991761;28;20160;-85
2022/01/06 07:26:52;;;;;;;26.52;4.13;;;0.10;99.90;;;;;;4992438;28;20049;-86
2022/01/06 07:29:17;;;;;;;24.15;4.00;;;0.10;99.90;;;;;;4975348;28;20486;-85
2022/01/06 07:31:43;;;;;;;29.73;4.18;;;0.10;99.90;;;;;;4992567;28;20049;-85
2022/01/06 07:34:09;;;;;;;28.27;3.85;;;0.10;99.90;;;;;;4975683;28;20541;-85
2022/01/06 07:36:35;;;;;;;25.90;4.53;;;1.00;99.90;;;;;;4991852;28;20042;-85
2022/01/06 07:39:01;;;;;;;33.60;3.97;;;0.20;99.90;;;;;;4992031;28;20524;-85
2022/01/06 07:41:26;;;;;;;27.92;3.63;;;0.20;99.90;;;;;;4992074;28;20072;-85
2022/01/06 07:43:52;;;;;;;17.40;3.13;;;0.10;99.90;;;;;;4991538;28;20049;-85
2022/01/06 07:46:17;;;;;;;26.10;4.47;;;0.10;99.90;;;;;;4991394;28;20508;-85
2022/01/06 07:48:58;;;;;;;27.58;4.15;;;0.00;99.90;;;;;;4975507;28;20077;-85
2022/01/06 07:51:25;;;;;;;27.58;4.03;;;0.00;99.90;;;;;;4975791;28;20490;-85
2022/01/06 07:53:52;;;;;;;27.10;4.00;;;0.70;99.90;;;;;;4991708;28;20061;-85
2022/01/06 07:56:18;;;;;;;24.27;4.07;;;-0.10;99.90;;;;;;4991465;28;20045;-85
2022/01/06 07:58:44;;;;;;;31.83;3.90;;;-0.10;99.90;;;;;;4990843;28;20038;-84
2022/01/06 08:01:11;;;;;;;24.10;4.10;;;-0.10;99.90;;;;;;4991533;28;20502;-84
2022/01/06 08:03:36;;;;;;;27.95;6.13;;;-0.10;99.90;;;;;;4977231;28;20050;-84
2022/01/06 08:06:03;;;;;;;23.20;3.45;;;-0.10;99.90;;;;;;4990671;28;20434;-84
2022/01/06 08:08:28;;;;;;;27.75;3.75;;;-0.10;99.90;;;;;;4991498;28;20060;-84
2022/01/06 08:10:54;;;;;;;28.10;4.97;;;0.00;99.90;;;;;;4991035;28;20498;-84
2022/01/06 08:13:20;;;;;;;28.17;3.60;;;0.00;99.90;;;;;;4990340;28;20208;-85
2022/01/06 08:15:45;;;;;;;25.48;4.20;;;0.10;99.90;;;;;;4991256;28;20123;-84
2022/01/06 08:18:11;;;;;;;32.13;4.05;;;0.20;99.90;;;;;;4991824;28;20402;-84
2022/01/06 08:20:38;;;;;;;32.88;4.20;;;0.30;99.90;;;;;;4973423;28;20560;-85
2022/01/06 08:23:05;;;;;;;29.23;4.45;;;0.90;99.90;;;;;;5002201;28;20042;-85
2022/01/06 08:25:31;;;;;;;23.90;3.40;;;0.60;99.90;;;;;;4989838;28;20050;-85
2022/01/06 08:27:57;;;;;;;32.97;4.03;;;0.70;99.90;;;;;;4991532;28;20041;-85
2022/01/06 08:30:23;;;;;;;32.80;4.85;;;0.90;99.90;;;;;;4976197;28;20461;-85
2022/01/06 08:32:49;;;;;;;34.60;4.10;;;1.00;99.90;;;;;;4990247;28;20049;-86
2022/01/06 08:35:14;;;;;;;28.40;3.67;;;1.30;99.90;;;;;;4990896;28;20112;-86
2022/01/06 08:37:40;;;;;;;26.50;4.18;;;1.50;99.90;;;;;;4974336;28;20427;-87
2022/01/06 08:40:07;;;;;;;32.58;4.20;;;1.60;99.90;;;;;;4974280;28;20048;-85
2022/01/06 08:42:33;;;;;;;32.00;4.60;;;1.70;99.90;;;;;;4990891;28;20052;-84
2022/01/06 08:44:58;;;;;;;30.98;3.38;;;1.80;99.90;;;;;;4990625;28;20042;-85
2022/01/06 08:47:24;;;;;;;28.38;3.78;;;2.40;99.90;;;;;;4990137;28;20152;-85
2022/01/06 08:49:50;;;;;;;34.33;3.83;;;1.80;99.90;;;;;;4974103;28;20042;-86
2022/01/06 08:52:18;;;;;;;24.15;3.53;;;1.80;99.90;;;;;;4975248;28;20152;-86
2022/01/06 08:54:44;;;;;;;31.83;3.92;;;1.80;99.90;;;;;;4974316;28;20231;-87
2022/01/06 08:57:10;;;;;;;20.50;2.92;;;1.60;99.90;;;;;;4974734;28;20136;-86
2022/01/06 08:59:35;;;;;;;26.27;3.97;;;1.70;99.90;;;;;;4974748;28;20137;-82
2022/01/06 09:02:01;;;;;;;15.75;3.25;;;1.50;99.90;;;;;;4988330;28;20488;-86
2022/01/06 09:04:27;;;;;;;27.13;3.90;;;1.50;99.90;;;;;;4990716;28;20104;-82
2022/01/06 09:06:53;;;;;;;20.40;4.10;;;1.40;99.90;;;;;;4990496;28;20493;-87
2022/01/06 09:09:19;;;;;;;30.27;4.00;;;1.40;99.90;;;;;;4989609;28;20520;-86
2022/01/06 09:11:46;;;;;;;23.98;3.83;;;1.40;99.90;;;;;;4974922;28;20085;-87
2022/01/06 09:14:11;;;;;;;26.27;4.22;;;1.40;99.90;;;;;;4974898;28;20042;-88
2022/01/06 09:16:38;;;;;;;28.80;3.55;;;2.20;99.90;;;;;;4973401;28;20111;-85
2022/01/06 09:19:04;;;;;;;26.63;3.92;;;1.40;99.90;;;;;;4989604;28;20576;-85
2022/01/06 09:21:30;;;;;;;20.17;3.50;;;1.40;99.90;;;;;;4974329;28;20516;-87
2022/01/06 09:23:59;;;;;;;21.52;3.28;;;1.40;99.90;;;;;;4989806;28;20342;-87
2022/01/06 09:26:26;;;;;;;20.95;3.83;;;1.40;99.90;;;;;;4991788;28;20050;-87
2022/01/06 09:28:51;;;;;;;22.45;4.40;;;1.60;99.90;;;;;;4973198;28;20052;-86
2022/01/06 09:31:17;;;;;;;26.73;5.10;;;2.30;99.90;;;;;;4973611;28;20045;-85
2022/01/06 09:33:43;;;;;;;27.65;5.38;;;1.40;99.90;;;;;;4989532;28;20034;-87
2022/01/06 09:36:09;;;;;;;34.88;5.68;;;2.40;99.90;;;;;;4973327;28;20403;-87
2022/01/06 09:38:35;;;;;;;31.08;5.85;;;1.40;99.90;;;;;;4974548;28;20048;-87
2022/01/06 09:41:05;;;;;;;35.72;6.22;;;1.50;99.90;;;;;;4990822;28;20143;-88
2022/01/06 09:43:32;;;;;;;34.45;5.72;;;1.50;99.90;;;;;;4974011;28;20118;-88
2022/01/06 09:46:08;;;;;;;32.92;5.13;;;1.60;99.90;;;;;;4976793;28;20046;-91
2022/01/06 09:48:36;;;;;;;26.52;5.28;;;1.80;99.90;;;;;;4975867;28;20556;-90
2022/01/06 09:51:03;;;;;;;24.95;4.10;;;1.70;99.90;;;;;;4991523;28;20076;-87
2022/01/06 09:53:29;;;;;;;33.30;5.15;;;2.60;99.90;;;;;;4988382;28;20483;-85
2022/01/06 09:55:55;;;;;;;43.50;6.68;;;1.70;99.90;;;;;;4989993;28;20042;-85
2022/01/06 09:58:24;;;;;;;28.23;4.72;;;1.70;99.90;;;;;;5004614;28;20057;-86
2022/01/06 10:00:50;;;;;;;29.75;5.03;;;1.70;99.90;;;;;;4989058;28;20050;-84
2022/01/06 10:03:17;;;;;;;31.85;4.32;;;1.70;99.90;;;;;;4988672;28;20041;-86
2022/01/06 10:05:46;;;;;;;45.20;6.15;;;2.30;99.90;;;;;;4988148;28;20060;-86
2022/01/06 10:08:13;;;;;;;31.92;6.05;;;1.80;99.90;;;;;;4989397;28;20073;-86
2022/01/06 10:10:42;;;;;;;31.70;4.28;;;1.90;99.90;;;;;;4973262;28;20050;-85
2022/01/06 10:13:09;;;;;;;26.40;4.60;;;1.60;99.90;;;;;;4986105;28;20064;-87
2022/01/06 10:15:38;;;;;;;28.08;4.72;;;1.90;99.90;;;;;;4989658;28;20048;-87
2022/01/06 10:18:17;;;;;;;28.75;4.57;;;2.00;99.90;;;;;;4989229;28;20410;-86
2022/01/06 10:20:45;;;;;;;25.67;4.00;;;2.10;99.90;;;;;;4992371;28;20073;-88
2022/01/06 10:23:13;;;;;;;30.25;4.13;;;2.10;99.90;;;;;;4991176;28;20119;-87
2022/01/06 10:25:49;;;;;;;33.80;4.22;;;2.80;99.90;;;;;;4992353;28;20059;-84
2022/01/06 10:28:18;;;;;;;29.15;5.13;;;2.20;99.90;;;;;;4993555;28;20045;-88
2022/01/06 10:30:49;;;;;;;27.88;4.68;;;2.60;99.90;;;;;;4993001;28;20041;-88
2022/01/06 10:33:29;;;;;;;;;;;;;;;;;;;;;
2022/01/06 10:36:09;;;;;;;23.60;4.38;;;2.50;99.90;;;;;;5010959;28;20056;-87
2022/01/06 10:38:43;;;;;;;27.33;4.90;;;2.60;99.90;;;;;;4995158;28;20049;-89
2022/01/06 10:41:30;;;;;;;26.55;4.38;;;2.60;99.90;;;;;;5010749;28;20156;-89
2022/01/06 10:44:04;;;;;;;32.80;5.75;;;2.80;99.90;;;;;;4995260;28;20056;-89
2022/01/06 10:46:39;;;;;;;29.33;3.88;;;3.60;99.90;;;;;;4992740;28;20049;-89
2022/01/06 10:49:10;;;;;;;26.48;4.47;;;2.80;99.90;;;;;;4994993;28;20108;-92
2022/01/06 10:51:43;;;;;;;29.30;4.57;;;3.00;99.90;;;;;;4994720;28;20057;-89
2022/01/06 10:54:16;;;;;;;36.72;4.40;;;3.00;99.90;;;;;;4993302;28;20073;-89
2022/01/06 10:56:42;;;;;;;;;;;3.50;99.90;;;;;;4994107;28;20045;-89
2022/01/06 10:59:08;;;;;;;32.38;4.68;;;4.30;99.90;;;;;;4994464;28;20364;-89
2022/01/06 11:01:35;;;;;;;27.10;4.95;;;3.10;99.90;;;;;;4993873;28;20050;-89
2022/01/06 11:04:02;;;;;;;26.92;4.88;;;4.40;99.90;;;;;;4995381;28;20056;-87
2022/01/06 11:07:05;;;;;;;30.40;3.60;;;4.30;99.90;;;;;;5009537;28;20093;-88
2022/01/06 11:09:49;;;;;;;20.70;4.20;;;3.50;99.90;;;;;;4995679;28;20152;-89
2022/01/06 11:12:26;;;;;;;20.80;4.72;;;4.20;99.90;;;;;;4995578;28;20057;-87
2022/01/06 11:14:53;;;;;;;23.08;4.88;;;3.60;99.90;;;;;;5010486;28;20045;-86
2022/01/06 11:17:21;;;;;;;24.10;3.03;;;4.50;99.90;;;;;;4993025;28;20077;-87
2022/01/06 11:19:49;;;;;;;24.15;4.15;;;3.80;99.90;;;;;;4992503;28;20132;-87
2022/01/06 11:22:17;;;;;;;28.60;3.67;;;4.40;99.90;;;;;;5009066;28;20057;-88
2022/01/06 11:24:53;;;;;;;21.98;4.22;;;4.70;99.90;;;;;;5008784;28;20041;-88
2022/01/06 11:27:34;;;;;;;27.67;3.85;;;4.10;99.90;;;;;;4993042;28;20060;-87
2022/01/06 11:30:29;;;;;;;25.73;4.00;;;4.00;99.90;;;;;;5008834;28;20049;-86
2022/01/06 11:33:00;;;;;;;20.38;3.70;;;4.00;99.90;;;;;;5005589;28;20049;-87
2022/01/06 11:35:29;;;;;;;22.77;3.67;;;4.00;99.90;;;;;;4992152;28;20064;-86
2022/01/06 11:38:13;;;;;;;23.40;4.47;;;4.00;99.90;;;;;;5008700;28;20097;-87
2022/01/06 11:40:52;;;;;;;;;;;;;;;;;;;;;
2022/01/06 11:43:45;;;;;;;31.40;4.82;;;4.50;99.90;;;;;;4989469;28;20053;-88
2022/01/06 11:46:11;;;;;;;25.50;4.03;;;4.10;99.90;;;;;;4989995;28;20450;-87
2022/01/06 11:48:46;;;;;;;25.00;4.53;;;4.10;99.90;;;;;;4972693;28;20494;-86
2022/01/06 11:51:29;;;;;;;27.58;4.15;;;3.70;99.90;;;;;;4973139;28;20062;-88
2022/01/06 11:53:56;;;;;;;30.58;5.38;;;4.20;99.90;;;;;;4989923;28;20045;-87
2022/01/06 11:56:41;;;;;;;;;;;;;;;;;;;;;
2022/01/06 11:59:09;;;;;;;27.48;4.28;;;3.90;99.90;;;;;;4990246;28;20053;-86
2022/01/06 12:01:47;;;;;;;32.40;4.75;;;4.80;99.90;;;;;;4972578;28;20088;-87
2022/01/06 12:04:17;;;;;;;24.60;4.03;;;5.20;99.90;;;;;;4972017;28;20516;-86
2022/01/06 12:06:43;;;;;;;21.02;4.30;;;4.50;99.90;;;;;;4989242;28;20065;-86
2022/01/06 12:09:20;;;;;;;32.40;5.00;;;4.50;99.90;;;;;;4989416;28;20042;-87
2022/01/06 12:11:57;;;;;;;27.77;4.15;;;4.60;99.90;;;;;;4977083;23;20060;-85
2022/01/06 12:14:25;;;;;;;26.90;4.30;;;4.60;99.90;;;;;;4973437;28;20045;-85
2022/01/06 12:16:51;;;;;;;28.00;3.95;;;4.70;99.90;;;;;;4972837;28;20367;-85
2022/01/06 12:19:19;;;;;;;21.42;4.50;;;4.70;99.90;;;;;;4972084;28;20096;-85
2022/01/06 12:21:47;;;;;;;26.17;4.10;;;5.50;99.90;;;;;;4989206;28;20049;-83
2022/01/06 12:24:13;;;;;;;33.30;4.75;;;5.50;99.90;;;;;;4989053;28;20057;-86
2022/01/06 12:26:41;;;;;;;28.75;4.22;;;5.10;99.90;;;;;;4988619;28;20129;-86
2022/01/06 12:29:14;;;;;;;37.92;4.65;;;4.90;99.90;;;;;;4988866;28;20765;-87
2022/01/06 12:31:41;;;;;;;;;;;5.00;99.90;;;;;;4972878;28;20165;-88
2022/01/06 12:34:08;;;;;;;23.58;3.22;;;6.00;99.90;;;;;;4972335;28;19987;-87
2022/01/06 12:36:37;;;;;;;28.65;4.15;;;5.50;99.90;;;;;;4972355;28;20057;-86
2022/01/06 12:39:09;;;;;;;21.75;3.53;;;5.00;99.90;;;;;;4971559;28;20169;-88
2022/01/06 12:41:36;;;;;;;30.42;6.40;;;5.40;99.90;;;;;;4972310;28;20052;-85
2022/01/06 12:44:02;;;;;;;25.60;4.05;;;6.00;99.90;;;;;;4985290;28;20041;-86
2022/01/06 12:46:35;;;;;;;18.80;2.72;;;5.20;99.90;;;;;;4970748;28;20048;-87
2022/01/06 12:49:01;;;;;;;18.77;3.13;;;5.20;99.90;;;;;;4988139;28;20046;-86
2022/01/06 12:51:29;;;;;;;21.38;3.20;;;5.80;99.90;;;;;;4972057;28;20120;-85
2022/01/06 12:54:02;;;;;;;23.75;3.47;;;5.20;99.90;;;;;;4970791;28;20093;-86
2022/01/06 12:56:37;;;;;;;22.65;3.45;;;5.20;99.90;;;;;;4988035;28;20046;-86
2022/01/06 12:59:10;;;;;;;23.58;3.67;;;5.20;99.90;;;;;;4987614;28;20075;-85
2022/01/06 13:01:37;;;;;;;21.77;3.53;;;5.20;99.90;;;;;;4986834;28;20052;-86